createdAt,value
2023-03-03T00:01:13.775Z,13.80
2023-03-03T00:03:56.439Z,13.85
2023-03-03T00:06:39.395Z,11.63
2023-03-03T00:09:22.037Z,15.02
2023-03-03T00:12:19.332Z,11.63
2023-03-03T00:15:01.981Z,11.68
2023-03-03T00:17:44.624Z,10.55
2023-03-03T00:20:30.000Z,13.13
2023-03-03T00:23:18.797Z,12.80
2023-03-03T00:26:01.474Z,10.43
2023-03-03T00:28:47.451Z,12.20
2023-03-03T00:31:31.979Z,10.48
2023-03-03T00:34:25.410Z,10.05
2023-03-03T00:37:21.061Z,11.25
2023-03-03T00:40:14.681Z,9.75
2023-03-03T00:42:58.946Z,13.40
2023-03-03T00:45:44.825Z,9.75
2023-03-03T00:48:28.326Z,10.35
2023-03-03T00:51:20.209Z,11.02
2023-03-03T00:54:03.192Z,12.07
2023-03-03T00:56:45.990Z,9.70
2023-03-03T00:59:28.699Z,11.00
2023-03-03T01:02:12.776Z,11.32
2023-03-03T01:04:56.571Z,9.10
2023-03-03T01:07:39.187Z,12.25
2023-03-03T01:10:22.008Z,10.25
2023-03-03T01:13:05.680Z,10.60
2023-03-03T01:15:48.349Z,9.93
2023-03-03T01:18:32.597Z,9.75
2023-03-03T01:21:15.291Z,10.85
2023-03-03T01:23:57.993Z,11.23
2023-03-03T01:26:40.589Z,10.82
2023-03-03T01:29:23.217Z,10.23
2023-03-03T01:32:05.988Z,11.40
2023-03-03T01:34:50.005Z,9.50
2023-03-03T01:37:32.620Z,10.50
2023-03-03T01:40:17.302Z,11.48
2023-03-03T01:43:00.297Z,11.77
2023-03-03T01:46:01.641Z,12.88
2023-03-03T01:48:45.940Z,9.95
2023-03-03T01:51:30.637Z,9.38
2023-03-03T01:54:15.728Z,8.85
2023-03-03T01:57:00.352Z,10.55
2023-03-03T01:59:44.704Z,10.23
2023-03-03T02:02:28.770Z,10.90
2023-03-03T02:05:11.680Z,9.68
2023-03-03T02:07:55.953Z,9.25
2023-03-03T02:10:38.561Z,7.65
2023-03-03T02:13:21.178Z,7.57
2023-03-03T02:16:03.986Z,8.95
2023-03-03T02:18:46.597Z,8.05
2023-03-03T02:21:29.463Z,9.43
2023-03-03T02:24:16.635Z,9.27
2023-03-03T02:27:00.865Z,8.68
2023-03-03T02:29:44.883Z,8.85
2023-03-03T02:32:27.605Z,8.82
2023-03-03T02:35:30.068Z,10.20
2023-03-03T02:38:20.422Z,7.78
2023-03-03T02:41:10.215Z,8.10
2023-03-03T02:43:56.685Z,8.63
2023-03-03T02:46:41.023Z,9.10
2023-03-03T02:49:24.421Z,7.78
2023-03-03T02:52:09.635Z,8.50
2023-03-03T02:54:52.946Z,6.75
2023-03-03T02:57:35.605Z,7.70
2023-03-03T03:00:21.495Z,6.93
2023-03-03T03:03:04.288Z,8.85
2023-03-03T03:05:47.817Z,8.77
2023-03-03T03:08:30.552Z,7.13
2023-03-03T03:11:13.216Z,9.63
2023-03-03T03:13:56.176Z,9.00
2023-03-03T03:16:40.614Z,7.15
2023-03-03T03:19:23.247Z,7.97
2023-03-03T03:22:06.804Z,8.45
2023-03-03T03:24:51.317Z,7.88
2023-03-03T03:27:33.970Z,7.97
2023-03-03T03:30:16.874Z,6.85
2023-03-03T03:33:00.859Z,7.35
2023-03-03T03:35:45.699Z,7.45
2023-03-03T03:38:31.541Z,7.80
2023-03-03T03:41:14.636Z,8.18
2023-03-03T03:43:57.240Z,6.80
2023-03-03T03:46:40.482Z,6.80
2023-03-03T03:49:25.173Z,7.38
2023-03-03T03:52:09.197Z,8.25
2023-03-03T03:54:51.877Z,7.53
2023-03-03T03:57:35.063Z,7.32
2023-03-03T04:00:17.963Z,7.10
2023-03-03T04:03:06.966Z,7.50
2023-03-03T04:05:53.362Z,9.73
2023-03-03T04:08:36.038Z,8.68
2023-03-03T04:11:19.293Z,7.68
2023-03-03T04:14:02.620Z,7.90
2023-03-03T04:16:45.563Z,8.45
2023-03-03T04:19:28.778Z,8.05
2023-03-03T04:22:13.620Z,8.23
2023-03-03T04:24:56.245Z,8.73
2023-03-03T04:27:38.952Z,9.10
2023-03-03T04:30:22.738Z,8.15
2023-03-03T04:33:09.191Z,8.02
2023-03-03T04:35:53.977Z,7.43
2023-03-03T04:38:38.476Z,7.32
2023-03-03T04:41:21.383Z,7.07
2023-03-03T04:44:04.139Z,7.75
2023-03-03T04:46:47.386Z,7.00
2023-03-03T04:49:30.044Z,9.07
2023-03-03T04:52:13.488Z,8.35
2023-03-03T04:54:57.506Z,7.97
2023-03-03T04:57:40.864Z,7.95
2023-03-03T05:00:23.800Z,8.32
2023-03-03T05:03:06.501Z,7.38
2023-03-03T05:05:49.266Z,8.18
2023-03-03T05:08:31.879Z,10.45
2023-03-03T05:11:15.788Z,8.73
2023-03-03T05:13:58.353Z,8.70
2023-03-03T05:16:40.951Z,9.05
2023-03-03T05:19:24.173Z,8.88
2023-03-03T05:22:06.880Z,9.18
2023-03-03T05:24:49.519Z,6.95
2023-03-03T05:27:33.509Z,8.82
2023-03-03T05:30:16.216Z,7.95
2023-03-03T05:32:59.343Z,9.07
2023-03-03T05:35:41.990Z,8.48
2023-03-03T05:38:24.816Z,7.32
2023-03-03T05:41:07.472Z,8.55
2023-03-03T05:43:51.438Z,7.55
2023-03-03T05:46:34.161Z,7.88
2023-03-03T05:49:16.759Z,7.45
2023-03-03T05:51:59.446Z,7.55
2023-03-03T05:54:42.026Z,8.25
2023-03-03T05:57:24.669Z,6.82
2023-03-03T06:00:09.633Z,7.32
2023-03-03T06:02:55.466Z,7.85
2023-03-03T06:05:38.170Z,7.65
2023-03-03T06:08:20.810Z,7.72
2023-03-03T06:11:03.501Z,8.32
2023-03-03T06:13:46.321Z,6.88
2023-03-03T06:16:30.313Z,7.57
2023-03-03T06:19:19.011Z,7.85
2023-03-03T06:22:01.633Z,7.55
2023-03-03T06:24:44.374Z,6.88
2023-03-03T06:27:27.449Z,5.95
2023-03-03T06:30:10.665Z,6.40
2023-03-03T06:32:54.736Z,5.32
2023-03-03T06:35:37.546Z,6.07
2023-03-03T06:38:20.352Z,7.50
2023-03-03T06:41:07.183Z,6.43
2023-03-03T06:43:49.769Z,5.53
2023-03-03T06:46:32.389Z,6.35
2023-03-03T06:49:16.382Z,5.53
2023-03-03T06:51:59.883Z,5.93
2023-03-03T06:54:42.705Z,6.78
2023-03-03T06:57:27.256Z,6.30
2023-03-03T07:00:17.608Z,6.15
2023-03-03T07:03:01.156Z,7.43
2023-03-03T07:05:46.215Z,7.10
2023-03-03T07:08:31.473Z,6.32
2023-03-03T07:11:16.007Z,5.03
2023-03-03T07:13:58.827Z,5.38
2023-03-03T07:16:42.785Z,6.03
2023-03-03T07:19:29.757Z,6.47
2023-03-03T07:22:17.831Z,6.70
2023-03-03T07:25:01.860Z,5.68
2023-03-03T07:27:44.918Z,5.25
2023-03-03T07:30:28.515Z,5.28
2023-03-03T07:33:19.857Z,4.57
2023-03-03T07:36:03.696Z,5.63
2023-03-03T07:38:52.610Z,5.43
2023-03-03T07:41:35.835Z,5.45
2023-03-03T07:44:20.380Z,5.38
2023-03-03T07:47:13.708Z,4.78
2023-03-03T07:49:56.976Z,4.85
2023-03-03T07:52:40.918Z,5.13
2023-03-03T07:55:35.525Z,3.58
2023-03-03T07:58:25.735Z,4.15
2023-03-03T08:01:23.185Z,4.35
2023-03-03T08:04:10.971Z,5.18
2023-03-03T08:06:54.852Z,4.15
2023-03-03T08:09:38.933Z,4.75
2023-03-03T08:12:29.773Z,5.05
2023-03-03T08:15:15.809Z,5.03
2023-03-03T08:18:01.403Z,6.68
2023-03-03T08:20:47.884Z,6.65
2023-03-03T08:23:30.567Z,4.57
2023-03-03T08:26:14.030Z,4.95
2023-03-03T08:28:58.131Z,4.45
2023-03-03T08:31:42.181Z,4.80
2023-03-03T08:34:24.906Z,4.45
2023-03-03T08:37:07.518Z,4.53
2023-03-03T08:39:50.121Z,3.95
2023-03-03T08:42:32.746Z,3.92
2023-03-03T08:45:17.061Z,3.50
2023-03-03T08:48:00.338Z,4.22
2023-03-03T08:50:43.917Z,4.43
2023-03-03T08:53:27.267Z,3.70
2023-03-03T08:56:10.489Z,3.50
2023-03-03T08:59:02.178Z,4.47
2023-03-03T09:01:46.960Z,4.35
2023-03-03T09:04:29.653Z,3.78
2023-03-03T09:07:12.307Z,3.78
2023-03-03T09:09:54.942Z,3.25
2023-03-03T09:12:39.233Z,6.45
2023-03-03T09:15:23.769Z,3.88
2023-03-03T09:18:14.342Z,4.40
2023-03-03T09:20:57.678Z,4.63
2023-03-03T09:23:42.309Z,4.38
2023-03-03T09:26:28.479Z,4.45
2023-03-03T09:29:19.294Z,6.82
2023-03-03T09:32:04.034Z,5.10
2023-03-03T09:34:48.831Z,4.47
2023-03-03T09:37:35.148Z,4.20
2023-03-03T09:40:29.800Z,3.67
2023-03-03T09:43:19.983Z,5.63
2023-03-03T09:46:05.766Z,5.32
2023-03-03T09:48:53.497Z,4.50
2023-03-03T09:51:48.309Z,4.13
2023-03-03T09:54:45.814Z,3.95
2023-03-03T09:57:32.158Z,3.85
2023-03-03T10:00:20.398Z,4.03
2023-03-03T10:03:18.003Z,4.47
2023-03-03T10:06:04.185Z,4.25
2023-03-03T10:08:54.729Z,5.65
2023-03-03T10:11:39.889Z,3.97
2023-03-03T10:14:29.186Z,4.25
2023-03-03T10:17:26.969Z,3.50
2023-03-03T10:20:17.991Z,4.93
2023-03-03T10:23:09.223Z,4.75
2023-03-03T10:25:58.314Z,4.85
2023-03-03T10:28:50.270Z,5.00
2023-03-03T10:31:37.257Z,5.95
2023-03-03T10:34:26.186Z,4.07
2023-03-03T10:37:12.846Z,6.35
2023-03-03T10:40:02.823Z,5.40
2023-03-03T10:42:52.984Z,5.18
2023-03-03T10:45:46.298Z,6.07
2023-03-03T10:48:42.545Z,6.07
2023-03-03T10:51:28.850Z,5.72
2023-03-03T10:54:19.179Z,5.25
2023-03-03T10:57:05.151Z,5.78
2023-03-03T11:00:05.467Z,5.53
2023-03-03T11:02:57.425Z,4.05
2023-03-03T11:05:41.127Z,6.13
2023-03-03T11:08:28.834Z,7.55
2023-03-03T11:11:15.911Z,6.97
2023-03-03T11:14:04.160Z,9.35
2023-03-03T11:16:55.152Z,8.75
2023-03-03T11:19:53.961Z,8.27
2023-03-03T11:22:40.898Z,7.90
2023-03-03T11:25:27.245Z,9.55
2023-03-03T11:28:20.174Z,6.70
2023-03-03T11:31:10.673Z,7.25
2023-03-03T11:33:59.542Z,6.45
2023-03-03T11:36:44.887Z,7.47
2023-03-03T11:39:28.430Z,7.32
2023-03-03T11:42:14.567Z,9.32
2023-03-03T11:45:00.693Z,9.57
2023-03-03T11:47:46.024Z,9.45
2023-03-03T11:50:32.266Z,7.88
2023-03-03T11:53:25.795Z,6.93
2023-03-03T11:56:15.561Z,8.63
2023-03-03T11:59:08.332Z,5.55
2023-03-03T12:01:53.679Z,7.90
2023-03-03T12:04:37.989Z,7.88
2023-03-03T12:07:27.854Z,8.40
2023-03-03T12:10:15.743Z,9.50
2023-03-03T12:13:02.604Z,8.40
2023-03-03T12:15:49.465Z,7.95
2023-03-03T12:18:37.662Z,9.27
2023-03-03T12:21:25.193Z,10.63
2023-03-03T12:24:15.920Z,7.68
2023-03-03T12:27:04.141Z,8.50
2023-03-03T12:29:52.886Z,10.30
2023-03-03T12:32:46.994Z,7.93
2023-03-03T12:35:32.202Z,7.65
2023-03-03T12:38:21.318Z,8.65
2023-03-03T12:41:08.779Z,8.63
2023-03-03T12:43:55.797Z,7.47
2023-03-03T12:46:45.086Z,8.25
2023-03-03T12:49:42.504Z,7.10
2023-03-03T12:52:31.577Z,7.65
2023-03-03T12:55:17.988Z,8.88
2023-03-03T12:58:05.672Z,7.88
2023-03-03T13:00:54.935Z,8.15
2023-03-03T13:03:54.983Z,9.75
2023-03-03T13:06:43.922Z,6.22
2023-03-03T13:09:32.765Z,10.85
2023-03-03T13:12:29.667Z,7.85
2023-03-03T13:15:18.246Z,7.20
2023-03-03T13:18:09.295Z,7.80
2023-03-03T13:20:55.066Z,6.25
2023-03-03T13:23:46.817Z,4.57
2023-03-03T13:26:34.783Z,6.75
2023-03-03T13:29:20.762Z,2.63
2023-03-03T13:32:09.847Z,3.50
2023-03-03T13:34:55.898Z,3.75
2023-03-03T13:37:41.127Z,2.90
2023-03-03T13:40:25.222Z,2.42
2023-03-03T13:43:11.565Z,3.17
2023-03-03T13:46:05.479Z,2.92
2023-03-03T13:49:02.415Z,3.78
2023-03-03T13:51:46.795Z,2.03
2023-03-03T13:54:42.513Z,2.55
2023-03-03T13:57:38.693Z,4.03
2023-03-03T14:00:26.509Z,3.28
2023-03-03T14:03:24.043Z,1.73
2023-03-03T14:06:11.506Z,1.85
2023-03-03T14:09:01.833Z,1.25
2023-03-03T14:11:48.063Z,2.70
2023-03-03T14:14:38.612Z,3.20
2023-03-03T14:17:28.768Z,3.17
2023-03-03T14:20:15.663Z,4.10
2023-03-03T14:23:00.881Z,4.90
2023-03-03T14:25:54.604Z,2.08
2023-03-03T14:28:40.692Z,2.17
2023-03-03T14:31:24.044Z,6.38
2023-03-03T14:34:15.815Z,3.53
2023-03-03T14:37:09.498Z,3.05
2023-03-03T14:40:04.010Z,3.00
2023-03-03T14:42:54.790Z,3.30
2023-03-03T14:45:38.313Z,2.58
2023-03-03T14:48:21.454Z,2.70
2023-03-03T14:51:17.256Z,5.50
2023-03-03T14:53:59.894Z,4.18
2023-03-03T14:56:56.498Z,2.90
2023-03-03T14:59:40.800Z,2.55
2023-03-03T15:02:29.363Z,4.57
2023-03-03T15:05:19.316Z,2.13
2023-03-03T15:08:09.811Z,3.75
2023-03-03T15:10:52.461Z,3.72
2023-03-03T15:13:36.897Z,4.72
2023-03-03T15:16:21.847Z,4.75
2023-03-03T15:19:22.344Z,4.07
2023-03-03T15:22:08.144Z,5.88
2023-03-03T15:24:55.338Z,3.22
2023-03-03T15:27:41.815Z,3.35
2023-03-03T15:30:29.844Z,5.82
2023-03-03T15:33:16.872Z,2.63
2023-03-03T15:36:05.240Z,1.95
2023-03-03T15:38:55.654Z,2.63
2023-03-03T15:41:41.474Z,5.82
2023-03-03T15:44:32.137Z,3.13
2023-03-03T15:47:25.216Z,4.70
2023-03-03T15:50:21.932Z,4.57
2023-03-03T15:53:14.003Z,5.75
2023-03-03T15:56:02.433Z,4.45
2023-03-03T15:58:54.944Z,6.53
2023-03-03T16:01:40.810Z,5.03
2023-03-03T16:04:27.018Z,5.45
2023-03-03T16:07:14.154Z,8.57
2023-03-03T16:10:02.178Z,8.25
2023-03-03T16:12:48.965Z,5.55
2023-03-03T16:15:42.206Z,5.70
2023-03-03T16:18:30.160Z,4.75
2023-03-03T16:21:20.360Z,8.40
2023-03-03T16:24:09.739Z,7.40
2023-03-03T16:26:55.428Z,6.72
2023-03-03T16:29:47.985Z,6.15
2023-03-03T16:32:33.148Z,6.40
2023-03-03T16:35:19.794Z,9.43
2023-03-03T16:38:05.721Z,8.23
2023-03-03T16:40:50.527Z,6.40
2023-03-03T16:43:38.303Z,9.85
2023-03-03T16:46:26.537Z,8.50
2023-03-03T16:49:11.444Z,9.73
2023-03-03T16:51:57.418Z,6.13
2023-03-03T16:54:45.153Z,6.90
2023-03-03T16:57:31.024Z,6.40
2023-03-03T17:00:15.570Z,6.78
2023-03-03T17:03:10.421Z,7.80
2023-03-03T17:05:54.077Z,7.63
2023-03-03T17:08:45.336Z,7.90
2023-03-03T17:11:32.673Z,11.63
2023-03-03T17:14:24.762Z,7.60
2023-03-03T17:17:13.173Z,7.07
2023-03-03T17:20:00.695Z,9.43
2023-03-03T17:22:48.766Z,10.90
2023-03-03T17:25:37.806Z,16.08
2023-03-03T17:28:29.327Z,9.68
2023-03-03T17:31:18.465Z,9.50
2023-03-03T17:34:09.192Z,10.45
2023-03-03T17:36:56.376Z,8.82
2023-03-03T17:40:01.297Z,12.80
2023-03-03T17:42:46.312Z,9.75
2023-03-03T17:45:32.304Z,7.55
2023-03-03T17:48:25.179Z,10.10
2023-03-03T17:51:37.126Z,11.60
2023-03-03T17:54:38.235Z,11.60
2023-03-03T17:57:30.397Z,9.98
2023-03-03T18:00:23.792Z,5.57
2023-03-03T18:03:21.603Z,8.88
2023-03-03T18:06:23.041Z,9.55
2023-03-03T18:09:15.200Z,11.55
2023-03-03T18:12:01.194Z,8.43
2023-03-03T18:14:52.141Z,11.40
2023-03-03T18:17:36.514Z,7.63
2023-03-03T18:20:27.452Z,10.18
2023-03-03T18:23:29.207Z,13.63
2023-03-03T18:26:34.831Z,11.90
2023-03-03T18:29:22.696Z,13.10
2023-03-03T18:32:17.479Z,7.50
2023-03-03T18:35:14.997Z,7.50
2023-03-03T18:37:57.832Z,9.63
2023-03-03T18:40:49.913Z,11.73
2023-03-03T18:43:56.654Z,10.98
2023-03-03T18:46:48.553Z,8.63
2023-03-03T18:49:49.584Z,11.07
2023-03-03T18:52:33.718Z,10.90
2023-03-03T18:55:25.367Z,6.10
2023-03-03T18:58:29.830Z,10.95
2023-03-03T19:01:30.537Z,8.23
2023-03-03T19:04:19.251Z,15.63
2023-03-03T19:07:16.353Z,17.55
2023-03-03T19:10:01.591Z,13.73
2023-03-03T19:12:48.631Z,10.75
2023-03-03T19:15:55.046Z,8.60
2023-03-03T19:18:58.474Z,12.68
2023-03-03T19:21:43.733Z,12.05
2023-03-03T19:24:27.961Z,13.65
2023-03-03T19:27:16.497Z,13.35
2023-03-03T19:30:14.896Z,10.02
2023-03-03T19:33:15.426Z,9.82
2023-03-03T19:36:15.849Z,10.90
2023-03-03T19:39:13.420Z,9.88
2023-03-03T19:42:02.434Z,14.55
2023-03-03T19:44:51.829Z,9.90
2023-03-03T19:47:37.771Z,11.90
2023-03-03T19:50:25.987Z,9.75
2023-03-03T19:53:12.291Z,9.98
2023-03-03T19:56:02.427Z,14.25
2023-03-03T19:58:51.009Z,11.38
2023-03-03T20:01:43.251Z,11.02
2023-03-03T20:04:35.632Z,12.38
2023-03-03T20:07:24.536Z,9.32
2023-03-03T20:10:20.455Z,9.15
2023-03-03T20:13:13.016Z,9.43
2023-03-03T20:16:00.776Z,13.75
2023-03-03T20:18:58.752Z,11.27
2023-03-03T20:21:44.401Z,11.02
2023-03-03T20:24:39.836Z,11.80
2023-03-03T20:27:25.128Z,11.95
2023-03-03T20:30:13.429Z,9.68
2023-03-03T20:33:01.616Z,7.78
2023-03-03T20:35:49.680Z,10.88
2023-03-03T20:38:39.183Z,12.23
2023-03-03T20:41:27.540Z,8.95
2023-03-03T20:44:15.603Z,10.82
2023-03-03T20:47:04.848Z,8.15
2023-03-03T20:49:55.338Z,9.32
2023-03-03T20:52:43.080Z,8.27
2023-03-03T20:55:29.048Z,10.63
2023-03-03T20:58:15.578Z,10.75
2023-03-03T21:01:04.201Z,13.30
2023-03-03T21:03:48.377Z,13.10
2023-03-03T21:06:38.804Z,14.73
2023-03-03T21:09:25.896Z,12.57
2023-03-03T21:12:12.617Z,15.60
2023-03-03T21:15:00.225Z,18.33
2023-03-03T21:17:42.896Z,7.85
2023-03-03T21:20:30.992Z,9.20
2023-03-03T21:23:13.723Z,12.38
2023-03-03T21:25:56.699Z,14.23
2023-03-03T21:28:39.306Z,9.75
2023-03-03T21:31:22.260Z,10.55
2023-03-03T21:34:18.327Z,8.63
2023-03-03T21:37:03.495Z,9.55
2023-03-03T21:39:46.177Z,9.70
2023-03-03T21:42:40.369Z,13.52
2023-03-03T21:45:23.749Z,10.90
2023-03-03T21:48:07.029Z,9.80
2023-03-03T21:50:49.876Z,11.55
2023-03-03T21:53:33.998Z,7.40
2023-03-03T21:56:16.640Z,9.32
2023-03-03T21:58:59.410Z,9.60
2023-03-03T22:01:42.145Z,6.07
2023-03-03T22:04:24.938Z,6.82
2023-03-03T22:07:07.934Z,8.77
2023-03-03T22:09:51.949Z,10.95
2023-03-03T22:12:34.599Z,9.13
2023-03-03T22:15:17.254Z,11.32
2023-03-03T22:17:59.949Z,10.30
2023-03-03T22:20:42.753Z,9.77
2023-03-03T22:23:25.590Z,10.98
2023-03-03T22:26:09.590Z,8.93
2023-03-03T22:28:52.226Z,9.82
2023-03-03T22:31:34.933Z,8.95
2023-03-03T22:34:17.632Z,6.90
2023-03-03T22:37:00.299Z,11.25
2023-03-03T22:39:42.932Z,9.15
2023-03-03T22:42:26.954Z,6.13
2023-03-03T22:45:11.250Z,11.23
2023-03-03T22:47:53.924Z,9.20
2023-03-03T22:50:39.472Z,8.30
2023-03-03T22:53:22.523Z,8.85
2023-03-03T22:56:05.421Z,7.88
2023-03-03T22:58:49.952Z,4.70
2023-03-03T23:01:32.581Z,6.97
2023-03-03T23:04:15.225Z,9.18
2023-03-03T23:06:58.608Z,10.15
2023-03-03T23:09:41.235Z,12.75
2023-03-03T23:12:24.148Z,8.68
2023-03-03T23:15:13.268Z,8.43
2023-03-03T23:17:55.926Z,10.05
2023-03-03T23:20:38.646Z,11.52
2023-03-03T23:23:21.254Z,7.63
2023-03-03T23:26:03.883Z,7.57
2023-03-03T23:28:46.479Z,7.10
2023-03-03T23:31:30.608Z,7.85
2023-03-03T23:34:13.234Z,4.75
2023-03-03T23:36:56.880Z,5.60
2023-03-03T23:39:40.548Z,9.23
2023-03-03T23:42:24.843Z,5.18
2023-03-03T23:45:08.239Z,10.30
2023-03-03T23:47:52.208Z,8.52
2023-03-03T23:50:37.125Z,3.55
2023-03-03T23:53:20.229Z,5.38
2023-03-03T23:56:02.862Z,4.05
2023-03-03T23:58:45.430Z,2.95
